createdAt,value
2017-02-20T00:00:07.989Z,961.05
2017-02-20T00:01:07.735Z,961.10
2017-02-20T00:02:08.283Z,961.08
2017-02-20T00:03:07.840Z,961.09
2017-02-20T00:04:07.439Z,961.11
2017-02-20T00:05:07.926Z,961.10
2017-02-20T00:06:07.715Z,961.10
2017-02-20T00:07:08.177Z,961.12
2017-02-20T00:08:08.135Z,961.15
2017-02-20T00:09:07.744Z,961.15
2017-02-20T00:10:08.374Z,961.14
2017-02-20T00:11:07.956Z,961.15
2017-02-20T00:12:07.807Z,961.17
2017-02-20T00:13:07.286Z,961.13
2017-02-20T00:14:07.789Z,961.15
2017-02-20T00:15:07.284Z,961.19
2017-02-20T00:16:07.884Z,961.18
2017-02-20T00:17:07.585Z,961.21
2017-02-20T00:18:08.341Z,961.19
2017-02-20T00:19:08.008Z,961.21
2017-02-20T00:20:07.599Z,961.19
2017-02-20T00:21:08.171Z,961.24
2017-02-20T00:22:07.824Z,961.20
2017-02-20T00:23:07.389Z,961.14
2017-02-20T00:24:08.247Z,961.28
2017-02-20T00:25:07.861Z,961.27
2017-02-20T00:26:07.368Z,961.22
2017-02-20T00:27:08.316Z,961.16
2017-02-20T00:28:07.955Z,961.18
2017-02-20T00:29:07.673Z,961.13
2017-02-20T00:30:08.296Z,961.11
2017-02-20T00:31:07.899Z,961.08
2017-02-20T00:32:07.459Z,961.10
2017-02-20T00:33:08.055Z,961.04
2017-02-20T00:34:07.534Z,961.04
2017-02-20T00:35:08.052Z,961.02
2017-02-20T00:36:07.679Z,961.02
2017-02-20T00:37:08.304Z,961.01
2017-02-20T00:38:07.931Z,961.01
2017-02-20T00:39:07.569Z,961.02
2017-02-20T00:40:08.168Z,961.05
2017-02-20T00:41:08.014Z,960.98
2017-02-20T00:42:07.632Z,960.96
2017-02-20T00:43:08.270Z,960.94
2017-02-20T00:44:07.857Z,960.95
2017-02-20T00:45:07.397Z,960.89
2017-02-20T00:46:07.936Z,960.93
2017-02-20T00:47:07.555Z,960.94
2017-02-20T00:48:08.212Z,960.98
2017-02-20T00:49:08.036Z,961.02
2017-02-20T00:50:07.564Z,960.99
2017-02-20T00:51:08.173Z,960.95
2017-02-20T00:52:07.758Z,960.94
2017-02-20T00:53:07.309Z,961.00
2017-02-20T00:54:07.790Z,960.98
2017-02-20T00:55:07.305Z,961.03
2017-02-20T00:56:07.799Z,961.01
2017-02-20T00:57:07.296Z,961.01
2017-02-20T00:58:07.823Z,961.02
2017-02-20T00:59:07.900Z,961.04
2017-02-20T01:00:07.438Z,960.98
2017-02-20T01:01:08.111Z,960.95
2017-02-20T01:02:07.967Z,960.95
2017-02-20T01:03:07.527Z,960.96
2017-02-20T01:04:08.338Z,960.98
2017-02-20T01:05:07.914Z,960.99
2017-02-20T01:06:07.570Z,960.97
2017-02-20T01:07:07.617Z,961.02
2017-02-20T01:08:08.302Z,960.99
2017-02-20T01:09:07.863Z,960.97
2017-02-20T01:10:07.486Z,960.98
2017-02-20T01:11:08.087Z,960.94
2017-02-20T01:12:07.665Z,960.99
2017-02-20T01:13:08.435Z,960.99
2017-02-20T01:14:08.234Z,960.94
2017-02-20T01:15:08.002Z,960.96
2017-02-20T01:16:07.574Z,960.90
2017-02-20T01:17:08.275Z,960.88
2017-02-20T01:18:07.827Z,960.89
2017-02-20T01:19:07.355Z,960.90
2017-02-20T01:20:08.139Z,960.91
2017-02-20T01:21:07.715Z,960.88
2017-02-20T01:22:08.303Z,960.85
2017-02-20T01:23:08.154Z,960.89
2017-02-20T01:24:07.769Z,960.86
2017-02-20T01:25:07.447Z,960.90
2017-02-20T01:26:07.973Z,960.85
2017-02-20T01:27:07.466Z,960.84
2017-02-20T01:28:08.118Z,960.82
2017-02-20T01:29:07.478Z,960.79
2017-02-20T01:30:08.091Z,960.78
2017-02-20T01:31:07.977Z,960.73
2017-02-20T01:32:07.690Z,960.73
2017-02-20T01:33:08.472Z,960.69
2017-02-20T01:34:08.146Z,960.69
2017-02-20T01:35:07.935Z,960.66
2017-02-20T01:36:07.476Z,960.66
2017-02-20T01:37:08.079Z,960.65
2017-02-20T01:38:07.980Z,960.61
2017-02-20T01:39:08.351Z,960.58
2017-02-20T01:40:08.161Z,960.57
2017-02-20T01:41:07.815Z,960.54
2017-02-20T01:42:07.460Z,960.48
2017-02-20T01:43:08.015Z,960.51
2017-02-20T01:44:07.698Z,960.48
2017-02-20T01:45:08.367Z,960.47
2017-02-20T01:46:07.893Z,960.46
2017-02-20T01:47:07.701Z,960.46
2017-02-20T01:48:08.296Z,960.45
2017-02-20T01:49:07.902Z,960.37
2017-02-20T01:50:07.439Z,960.42
2017-02-20T01:51:08.023Z,960.40
2017-02-20T01:52:07.419Z,960.37
2017-02-20T01:53:08.217Z,960.36
2017-02-20T01:54:07.906Z,960.39
2017-02-20T01:55:07.727Z,960.37
2017-02-20T01:56:08.651Z,960.38
2017-02-20T01:57:08.269Z,960.38
2017-02-20T01:58:08.172Z,960.32
2017-02-20T01:59:07.729Z,960.38
2017-02-20T02:00:08.224Z,960.33
2017-02-20T02:01:07.998Z,960.31
2017-02-20T02:02:07.641Z,960.28
2017-02-20T02:03:08.499Z,960.29
2017-02-20T02:04:08.290Z,960.30
2017-02-20T02:05:07.989Z,960.30
2017-02-20T02:06:08.019Z,960.26
2017-02-20T02:07:07.688Z,960.24
2017-02-20T02:08:07.444Z,960.24
2017-02-20T02:09:08.202Z,960.20
2017-02-20T02:10:07.940Z,960.20
2017-02-20T02:11:07.826Z,960.20
2017-02-20T02:12:07.366Z,960.20
2017-02-20T02:13:07.890Z,960.20
2017-02-20T02:14:07.712Z,960.16
2017-02-20T02:15:08.363Z,960.17
2017-02-20T02:16:07.842Z,960.18
2017-02-20T02:17:07.491Z,960.19
2017-02-20T02:18:07.955Z,960.18
2017-02-20T02:19:07.707Z,960.17
2017-02-20T02:20:08.277Z,960.16
2017-02-20T02:21:08.118Z,960.13
2017-02-20T02:22:07.683Z,960.17
2017-02-20T02:23:08.332Z,960.15
2017-02-20T02:24:07.852Z,960.12
2017-02-20T02:25:07.374Z,960.15
2017-02-20T02:26:08.322Z,960.14
2017-02-20T02:27:07.846Z,960.13
2017-02-20T02:28:07.454Z,960.10
2017-02-20T02:29:07.584Z,960.12
2017-02-20T02:30:08.190Z,960.10
2017-02-20T02:31:07.829Z,960.11
2017-02-20T02:32:08.219Z,960.09
2017-02-20T02:33:07.751Z,960.05
2017-02-20T02:34:07.373Z,960.05
2017-02-20T02:35:08.061Z,960.09
2017-02-20T02:36:07.845Z,960.05
2017-02-20T02:37:07.721Z,960.08
2017-02-20T02:38:08.388Z,960.08
2017-02-20T02:39:08.224Z,960.09
2017-02-20T02:40:07.889Z,960.09
2017-02-20T02:41:07.435Z,960.09
2017-02-20T02:42:08.040Z,960.13
2017-02-20T02:43:07.541Z,960.20
2017-02-20T02:44:08.147Z,960.16
2017-02-20T02:45:07.760Z,960.11
2017-02-20T02:46:08.563Z,960.12
2017-02-20T02:47:08.200Z,960.17
2017-02-20T02:48:07.903Z,960.17
2017-02-20T02:49:08.460Z,960.23
2017-02-20T02:50:08.025Z,960.15
2017-02-20T02:51:07.575Z,960.17
2017-02-20T02:52:08.042Z,960.15
2017-02-20T02:53:07.914Z,960.11
2017-02-20T02:54:07.423Z,960.17
2017-02-20T02:55:07.842Z,960.15
2017-02-20T02:56:07.284Z,960.08
2017-02-20T02:57:07.929Z,960.10
2017-02-20T02:58:07.480Z,960.15
2017-02-20T02:59:08.292Z,960.14
2017-02-20T03:00:08.000Z,960.14
2017-02-20T03:01:07.483Z,960.15
2017-02-20T03:02:08.037Z,960.17
2017-02-20T03:03:07.981Z,960.15
2017-02-20T03:04:07.634Z,960.16
2017-02-20T03:05:08.322Z,960.18
2017-02-20T03:06:07.856Z,960.23
2017-02-20T03:07:07.430Z,960.20
2017-02-20T03:08:08.044Z,960.20
2017-02-20T03:09:07.738Z,960.18
2017-02-20T03:10:08.563Z,960.20
2017-02-20T03:11:08.366Z,960.22
2017-02-20T03:12:07.984Z,960.18
2017-02-20T03:13:07.569Z,960.17
2017-02-20T03:14:08.155Z,960.21
2017-02-20T03:15:07.986Z,960.17
2017-02-20T03:16:07.915Z,960.23
2017-02-20T03:17:07.583Z,960.19
2017-02-20T03:18:08.173Z,960.23
2017-02-20T03:19:08.005Z,960.23
2017-02-20T03:20:07.875Z,960.22
2017-02-20T03:21:07.616Z,960.19
2017-02-20T03:22:08.337Z,960.21
2017-02-20T03:23:07.891Z,960.19
2017-02-20T03:24:07.462Z,960.18
2017-02-20T03:25:08.168Z,960.21
2017-02-20T03:26:07.778Z,960.19
2017-02-20T03:27:07.318Z,960.20
2017-02-20T03:28:07.867Z,960.24
2017-02-20T03:29:07.392Z,960.20
2017-02-20T03:30:08.001Z,960.21
2017-02-20T03:31:07.594Z,960.24
2017-02-20T03:32:07.769Z,960.21
2017-02-20T03:33:07.342Z,960.19
2017-02-20T03:34:08.155Z,960.19
2017-02-20T03:35:07.780Z,960.20
2017-02-20T03:36:07.298Z,960.19
2017-02-20T03:37:07.943Z,960.18
2017-02-20T03:38:07.546Z,960.19
2017-02-20T03:39:08.065Z,960.14
2017-02-20T03:40:07.913Z,960.12
2017-02-20T03:41:07.831Z,960.13
2017-02-20T03:42:07.736Z,960.15
2017-02-20T03:43:07.343Z,960.16
2017-02-20T03:44:07.921Z,960.18
2017-02-20T03:45:07.547Z,960.19
2017-02-20T03:46:08.227Z,960.20
2017-02-20T03:47:07.844Z,960.25
2017-02-20T03:48:07.425Z,960.24
2017-02-20T03:49:08.052Z,960.23
2017-02-20T03:50:07.624Z,960.27
2017-02-20T03:51:08.276Z,960.27
2017-02-20T03:52:08.002Z,960.27
2017-02-20T03:53:07.469Z,960.20
2017-02-20T03:54:08.058Z,960.23
2017-02-20T03:55:07.579Z,960.25
2017-02-20T03:56:08.117Z,960.25
2017-02-20T03:57:07.682Z,960.20
2017-02-20T03:58:08.173Z,960.19
2017-02-20T03:59:07.809Z,960.15
2017-02-20T04:00:07.486Z,960.20
2017-02-20T04:01:07.960Z,960.21
2017-02-20T04:02:07.621Z,960.18
2017-02-20T04:03:08.136Z,960.18
2017-02-20T04:04:07.983Z,960.16
2017-02-20T04:05:07.501Z,960.14
2017-02-20T04:06:08.129Z,960.18
2017-02-20T04:07:27.175Z,960.14
2017-02-20T04:08:07.684Z,960.15
2017-02-20T04:09:08.281Z,960.16
2017-02-20T04:10:07.938Z,960.18
2017-02-20T04:11:07.491Z,960.18
2017-02-20T04:12:08.249Z,960.15
2017-02-20T04:13:07.721Z,960.15
2017-02-20T04:14:08.320Z,960.15
2017-02-20T04:15:07.913Z,960.09
2017-02-20T04:16:07.487Z,960.14
2017-02-20T04:17:08.134Z,960.16
2017-02-20T04:18:07.722Z,960.12
2017-02-20T04:19:26.886Z,960.17
2017-02-20T04:20:07.445Z,960.18
2017-02-20T04:21:08.091Z,960.13
2017-02-20T04:22:07.651Z,960.12
2017-02-20T04:23:08.293Z,960.16
2017-02-20T04:24:08.076Z,960.17
2017-02-20T04:25:07.867Z,960.16
2017-02-20T04:26:07.352Z,960.09
2017-02-20T04:27:07.959Z,960.16
2017-02-20T04:28:07.530Z,960.18
2017-02-20T04:29:08.146Z,960.13
2017-02-20T04:30:07.945Z,960.17
2017-02-20T04:31:07.841Z,960.13
2017-02-20T04:32:07.774Z,960.18
2017-02-20T04:33:07.370Z,960.18
2017-02-20T04:34:08.065Z,960.15
2017-02-20T04:35:08.246Z,960.16
2017-02-20T04:36:08.055Z,960.16
2017-02-20T04:37:07.888Z,960.14
2017-02-20T04:38:07.372Z,960.16
2017-02-20T04:39:07.967Z,960.13
2017-02-20T04:40:07.492Z,960.16
2017-02-20T04:41:08.082Z,960.11
2017-02-20T04:42:07.737Z,960.12
2017-02-20T04:43:08.345Z,960.13
2017-02-20T04:44:07.959Z,960.15
2017-02-20T04:45:07.487Z,960.16
2017-02-20T04:46:08.076Z,960.14
2017-02-20T04:47:07.654Z,960.14
2017-02-20T04:48:08.268Z,960.15
2017-02-20T04:49:07.805Z,960.15
2017-02-20T04:50:07.296Z,960.15
2017-02-20T04:51:07.835Z,960.14
2017-02-20T04:52:07.451Z,960.14
2017-02-20T04:53:08.021Z,960.17
2017-02-20T04:54:07.775Z,960.17
2017-02-20T04:55:07.310Z,960.13
2017-02-20T04:56:07.909Z,960.19
2017-02-20T04:57:07.424Z,960.17
2017-02-20T04:58:08.134Z,960.18
2017-02-20T04:59:07.669Z,960.20
2017-02-20T05:00:08.255Z,960.20
2017-02-20T05:01:07.810Z,960.25
2017-02-20T05:02:07.440Z,960.22
2017-02-20T05:03:08.069Z,960.19
2017-02-20T05:04:07.671Z,960.23
2017-02-20T05:05:08.497Z,960.21
2017-02-20T05:06:08.104Z,960.25
2017-02-20T05:07:07.820Z,960.21
2017-02-20T05:08:07.279Z,960.25
2017-02-20T05:09:07.920Z,960.27
2017-02-20T05:10:07.431Z,960.28
2017-02-20T05:11:08.010Z,960.28
2017-02-20T05:12:07.632Z,960.27
2017-02-20T05:13:08.178Z,960.30
2017-02-20T05:14:07.779Z,960.32
2017-02-20T05:15:07.326Z,960.39
2017-02-20T05:16:07.916Z,960.33
2017-02-20T05:17:07.734Z,960.35
2017-02-20T05:18:07.527Z,960.33
2017-02-20T05:19:08.370Z,960.41
2017-02-20T05:20:07.940Z,960.38
2017-02-20T05:21:07.528Z,960.37
2017-02-20T05:22:08.131Z,960.43
2017-02-20T05:23:07.614Z,960.45
2017-02-20T05:24:08.152Z,960.48
2017-02-20T05:25:10.487Z,960.45
2017-02-20T05:26:08.043Z,960.44
2017-02-20T05:27:07.666Z,960.40
2017-02-20T05:28:08.571Z,960.40
2017-02-20T05:29:08.240Z,960.40
2017-02-20T05:30:07.769Z,960.39
2017-02-20T05:31:07.490Z,960.38
2017-02-20T05:32:08.138Z,960.38
2017-02-20T05:33:07.772Z,960.39
2017-02-20T05:34:07.582Z,960.36
2017-02-20T05:35:08.139Z,960.35
2017-02-20T05:36:07.725Z,960.40
2017-02-20T05:37:08.399Z,960.35
2017-02-20T05:38:07.947Z,960.35
2017-02-20T05:39:07.857Z,960.38
2017-02-20T05:40:07.330Z,960.37
2017-02-20T05:41:08.200Z,960.36
2017-02-20T05:42:08.695Z,960.40
2017-02-20T05:43:08.197Z,960.40
2017-02-20T05:44:07.696Z,960.46
2017-02-20T05:45:08.319Z,960.39
2017-02-20T05:46:07.867Z,960.32
2017-02-20T05:47:07.429Z,960.33
2017-02-20T05:48:08.038Z,960.34
2017-02-20T05:49:07.827Z,960.35
2017-02-20T05:50:07.449Z,960.37
2017-02-20T05:51:08.004Z,960.32
2017-02-20T05:52:07.631Z,960.34
2017-02-20T05:53:08.265Z,960.33
2017-02-20T05:54:07.871Z,960.42
2017-02-20T05:55:07.446Z,960.42
2017-02-20T05:56:08.039Z,960.37
2017-02-20T05:57:07.518Z,960.43
2017-02-20T05:58:08.164Z,960.35
2017-02-20T05:59:07.827Z,960.31
2017-02-20T06:00:07.432Z,960.35
2017-02-20T06:01:07.978Z,960.33
2017-02-20T06:02:07.757Z,960.36
2017-02-20T06:03:07.427Z,960.38
2017-02-20T06:04:08.040Z,960.38
2017-02-20T06:05:07.615Z,960.37
2017-02-20T06:06:08.157Z,960.42
2017-02-20T06:07:07.745Z,960.40
2017-02-20T06:08:08.360Z,960.44
2017-02-20T06:09:08.023Z,960.44
2017-02-20T06:10:07.742Z,960.44
2017-02-20T06:11:08.389Z,960.41
2017-02-20T06:12:07.965Z,960.48
2017-02-20T06:13:07.552Z,960.41
2017-02-20T06:14:08.170Z,960.46
2017-02-20T06:15:07.831Z,960.41
2017-02-20T06:16:07.290Z,960.44
2017-02-20T06:17:08.018Z,960.43
2017-02-20T06:18:07.614Z,960.44
2017-02-20T06:19:08.216Z,960.40
2017-02-20T06:20:07.767Z,960.37
2017-02-20T06:21:07.387Z,960.39
2017-02-20T06:22:07.911Z,960.37
2017-02-20T06:23:07.719Z,960.40
2017-02-20T06:24:08.314Z,960.42
2017-02-20T06:25:07.870Z,960.44
2017-02-20T06:26:07.427Z,960.45
2017-02-20T06:27:07.950Z,960.46
2017-02-20T06:28:07.513Z,960.44
2017-02-20T06:29:08.133Z,960.46
2017-02-20T06:30:07.657Z,960.46
2017-02-20T06:31:08.261Z,960.49
2017-02-20T06:32:08.059Z,960.48
2017-02-20T06:33:07.920Z,960.49
2017-02-20T06:34:07.704Z,960.45
2017-02-20T06:35:08.423Z,960.46
2017-02-20T06:36:07.967Z,960.49
2017-02-20T06:37:07.538Z,960.47
2017-02-20T06:38:08.099Z,960.51
2017-02-20T06:39:07.620Z,960.46
2017-02-20T06:40:08.531Z,960.47
2017-02-20T06:41:08.137Z,960.47
2017-02-20T06:42:07.707Z,960.47
2017-02-20T06:43:08.269Z,960.49
2017-02-20T06:44:07.987Z,960.47
2017-02-20T06:45:07.666Z,960.51
2017-02-20T06:46:08.292Z,960.44
2017-02-20T06:47:07.838Z,960.45
2017-02-20T06:48:07.301Z,960.47
2017-02-20T06:49:07.909Z,960.46
2017-02-20T06:50:07.451Z,960.49
2017-02-20T06:51:08.009Z,960.46
2017-02-20T06:52:07.526Z,960.51
2017-02-20T06:53:08.984Z,960.52
2017-02-20T06:54:07.554Z,960.56
2017-02-20T06:55:07.460Z,960.52
2017-02-20T06:56:08.279Z,960.55
2017-02-20T06:57:07.964Z,960.54
2017-02-20T06:58:07.436Z,960.54
2017-02-20T06:59:08.012Z,960.51
2017-02-20T07:00:07.506Z,960.53
2017-02-20T07:01:08.123Z,960.53
2017-02-20T07:02:07.729Z,960.60
2017-02-20T07:03:08.374Z,960.57
2017-02-20T07:04:07.931Z,960.56
2017-02-20T07:05:07.849Z,960.56
2017-02-20T07:06:07.632Z,960.58
2017-02-20T07:07:08.235Z,960.61
2017-02-20T07:08:07.807Z,960.61
2017-02-20T07:09:07.356Z,960.61
2017-02-20T07:10:08.019Z,960.54
2017-02-20T07:11:07.486Z,960.58
2017-02-20T07:12:08.143Z,960.57
2017-02-20T07:13:07.732Z,960.61
2017-02-20T07:14:08.377Z,960.61
2017-02-20T07:15:08.142Z,960.64
2017-02-20T07:16:07.973Z,960.60
2017-02-20T07:17:07.843Z,960.59
2017-02-20T07:18:07.430Z,960.64
2017-02-20T07:19:08.031Z,960.64
2017-02-20T07:20:07.805Z,960.64
2017-02-20T07:21:07.295Z,960.64
2017-02-20T07:22:07.796Z,960.65
2017-02-20T07:23:07.297Z,960.64
2017-02-20T07:24:07.904Z,960.69
2017-02-20T07:25:07.519Z,960.69
2017-02-20T07:26:08.010Z,960.73
2017-02-20T07:27:08.338Z,960.73
2017-02-20T07:28:07.877Z,960.75
2017-02-20T07:29:07.594Z,960.78
2017-02-20T07:30:08.264Z,960.71
2017-02-20T07:31:07.789Z,960.77
2017-02-20T07:32:07.435Z,960.77
2017-02-20T07:33:07.960Z,960.72
2017-02-20T07:34:07.608Z,960.75
2017-02-20T07:35:08.250Z,960.76
2017-02-20T07:36:07.799Z,960.77
2017-02-20T07:37:07.330Z,960.80
2017-02-20T07:38:08.104Z,960.83
2017-02-20T07:39:07.697Z,960.78
2017-02-20T07:40:08.348Z,960.82
2017-02-20T07:41:07.939Z,960.84
2017-02-20T07:42:07.545Z,960.83
2017-02-20T07:43:08.136Z,960.83
2017-02-20T07:44:07.636Z,960.91
2017-02-20T07:45:07.864Z,960.83
2017-02-20T07:46:07.435Z,960.86
2017-02-20T07:47:08.139Z,960.84
2017-02-20T07:48:07.904Z,960.82
2017-02-20T07:49:07.388Z,960.80
2017-02-20T07:50:07.945Z,960.80
2017-02-20T07:51:07.477Z,960.78
2017-02-20T07:52:08.024Z,960.83
2017-02-20T07:53:07.505Z,960.82
2017-02-20T07:54:08.089Z,960.82
2017-02-20T07:55:07.626Z,960.77
2017-02-20T07:56:08.152Z,960.82
2017-02-20T07:57:07.712Z,960.81
2017-02-20T07:58:07.842Z,960.84
2017-02-20T07:59:07.499Z,960.85
2017-02-20T08:00:08.227Z,960.83
2017-02-20T08:01:07.888Z,960.89
2017-02-20T08:02:07.503Z,960.88
2017-02-20T08:03:08.137Z,960.97
2017-02-20T08:04:07.686Z,960.96
2017-02-20T08:05:08.220Z,960.94
2017-02-20T08:06:07.861Z,960.98
2017-02-20T08:07:07.377Z,960.97
2017-02-20T08:08:07.933Z,961.01
2017-02-20T08:09:07.486Z,961.01
2017-02-20T08:10:08.083Z,961.07
2017-02-20T08:11:07.743Z,961.01
2017-02-20T08:12:07.515Z,961.01
2017-02-20T08:13:08.302Z,961.04
2017-02-20T08:14:07.885Z,961.00
2017-02-20T08:15:07.510Z,961.03
2017-02-20T08:16:08.133Z,961.06
2017-02-20T08:17:07.751Z,961.04
2017-02-20T08:18:07.245Z,961.08
2017-02-20T08:19:07.838Z,961.05
2017-02-20T08:20:07.345Z,961.05
2017-02-20T08:21:08.017Z,961.02
2017-02-20T08:22:07.836Z,961.07
2017-02-20T08:23:07.422Z,961.04
2017-02-20T08:24:08.063Z,961.08
2017-02-20T08:25:07.579Z,961.04
2017-02-20T08:26:08.146Z,961.00
2017-02-20T08:27:07.629Z,961.02
2017-02-20T08:28:08.205Z,961.04
2017-02-20T08:29:07.763Z,961.04
2017-02-20T08:30:07.272Z,960.95
2017-02-20T08:31:07.933Z,960.95
2017-02-20T08:32:07.632Z,960.96
2017-02-20T08:33:08.182Z,960.95
2017-02-20T08:34:07.859Z,960.94
2017-02-20T08:35:07.653Z,960.91
2017-02-20T08:36:08.300Z,960.94
2017-02-20T08:37:07.784Z,960.93
2017-02-20T08:38:08.285Z,960.92
2017-02-20T08:39:07.875Z,960.90
2017-02-20T08:40:07.396Z,960.87
2017-02-20T08:41:07.984Z,960.91
2017-02-20T08:42:07.756Z,960.87
2017-02-20T08:43:07.557Z,960.82
2017-02-20T08:44:08.232Z,960.90
2017-02-20T08:45:07.847Z,960.82
2017-02-20T08:46:07.385Z,960.82
2017-02-20T08:47:07.993Z,960.84
2017-02-20T08:48:07.667Z,960.86
2017-02-20T08:49:08.194Z,960.78
2017-02-20T08:50:07.764Z,960.80
2017-02-20T08:51:07.275Z,960.80
2017-02-20T08:52:07.798Z,960.77
2017-02-20T08:53:07.589Z,960.77
2017-02-20T08:54:08.295Z,960.76
2017-02-20T08:55:07.976Z,960.75
2017-02-20T08:56:07.460Z,960.79
2017-02-20T08:57:08.069Z,960.79
2017-02-20T08:58:07.632Z,960.79
2017-02-20T08:59:08.198Z,960.74
2017-02-20T09:00:08.677Z,960.77
2017-02-20T09:01:08.225Z,960.77
2017-02-20T09:02:07.785Z,960.74
2017-02-20T09:03:07.388Z,960.73
2017-02-20T09:04:08.048Z,960.79
2017-02-20T09:05:07.571Z,960.77
2017-02-20T09:06:08.253Z,960.77
2017-02-20T09:07:07.848Z,960.79
2017-02-20T09:08:07.415Z,960.79
2017-02-20T09:09:08.019Z,960.78
2017-02-20T09:10:07.501Z,960.80
2017-02-20T09:11:08.125Z,960.86
2017-02-20T09:12:07.707Z,960.87
2017-02-20T09:13:08.329Z,960.88
2017-02-20T09:14:07.866Z,960.86
2017-02-20T09:15:07.514Z,960.87
2017-02-20T09:16:08.091Z,960.86
2017-02-20T09:17:07.768Z,960.89
2017-02-20T09:18:07.243Z,960.89
2017-02-20T09:19:07.765Z,960.84
2017-02-20T09:20:07.232Z,960.83
2017-02-20T09:21:07.842Z,960.80
2017-02-20T09:22:07.380Z,960.80
2017-02-20T09:23:07.906Z,960.83
2017-02-20T09:24:07.677Z,960.82
2017-02-20T09:25:08.285Z,960.89
2017-02-20T09:26:07.985Z,960.86
2017-02-20T09:27:07.547Z,960.89
2017-02-20T09:28:08.160Z,960.91
2017-02-20T09:29:07.683Z,960.88
2017-02-20T09:30:08.346Z,960.95
2017-02-20T09:31:07.918Z,960.89
2017-02-20T09:32:07.484Z,960.93
2017-02-20T09:33:08.099Z,960.96
2017-02-20T09:34:07.591Z,960.90
2017-02-20T09:35:08.081Z,960.91
2017-02-20T09:36:07.747Z,960.95
2017-02-20T09:37:07.457Z,960.91
2017-02-20T09:38:07.991Z,960.92
2017-02-20T09:39:07.570Z,960.92
2017-02-20T09:40:08.098Z,960.97
2017-02-20T09:41:07.580Z,960.93
2017-02-20T09:42:08.130Z,960.92
2017-02-20T09:43:07.784Z,960.91
2017-02-20T09:44:07.335Z,960.99
2017-02-20T09:45:08.036Z,960.91
2017-02-20T09:46:07.612Z,960.90
2017-02-20T09:47:08.260Z,960.93
2017-02-20T09:48:07.922Z,960.90
2017-02-20T09:49:07.458Z,960.90
2017-02-20T09:50:08.189Z,960.90
2017-02-20T09:51:07.787Z,960.87
2017-02-20T09:52:07.333Z,960.89
2017-02-20T09:53:07.926Z,960.87
2017-02-20T09:54:07.710Z,960.89
2017-02-20T09:55:07.337Z,960.87
2017-02-20T09:56:08.018Z,960.85
2017-02-20T09:57:07.811Z,960.85
2017-02-20T09:58:07.355Z,960.82
2017-02-20T09:59:07.650Z,960.83
2017-02-20T10:00:08.267Z,960.83
2017-02-20T10:01:07.861Z,960.86
2017-02-20T10:02:07.497Z,960.82
2017-02-20T10:03:08.111Z,960.84
2017-02-20T10:04:07.602Z,960.81
2017-02-20T10:05:08.237Z,960.77
2017-02-20T10:06:07.816Z,960.75
2017-02-20T10:07:07.403Z,960.77
2017-02-20T10:08:07.942Z,960.78
2017-02-20T10:09:07.855Z,960.81
2017-02-20T10:10:07.768Z,960.73
2017-02-20T10:11:07.553Z,960.82
2017-02-20T10:12:08.277Z,960.81
2017-02-20T10:13:07.891Z,960.90
2017-02-20T10:14:07.444Z,960.99
2017-02-20T10:15:08.027Z,960.92
2017-02-20T10:16:07.526Z,960.86
2017-02-20T10:17:08.250Z,960.94
2017-02-20T10:18:07.849Z,960.91
2017-02-20T10:19:07.714Z,960.89
2017-02-20T10:20:07.313Z,960.90
2017-02-20T10:21:08.142Z,960.88
2017-02-20T10:22:07.715Z,960.91
2017-02-20T10:23:07.316Z,960.86
2017-02-20T10:24:07.925Z,960.85
2017-02-20T10:25:07.542Z,960.89
2017-02-20T10:26:08.132Z,960.84
2017-02-20T10:27:07.771Z,960.88
2017-02-20T10:28:07.348Z,960.76
2017-02-20T10:29:07.944Z,960.82
2017-02-20T10:30:07.440Z,960.76
2017-02-20T10:31:07.956Z,960.71
2017-02-20T10:32:07.578Z,960.74
2017-02-20T10:33:08.158Z,960.70
2017-02-20T10:34:07.857Z,960.69
2017-02-20T10:35:07.463Z,960.68
2017-02-20T10:36:07.968Z,960.65
2017-02-20T10:37:07.483Z,960.69
2017-02-20T10:38:08.013Z,960.72
2017-02-20T10:39:07.503Z,960.71
2017-02-20T10:40:08.129Z,960.65
2017-02-20T10:41:07.874Z,960.69
2017-02-20T10:42:07.470Z,960.66
2017-02-20T10:43:08.067Z,960.61
2017-02-20T10:44:08.012Z,960.64
2017-02-20T10:45:07.527Z,960.58
2017-02-20T10:46:08.078Z,960.55
2017-02-20T10:47:07.642Z,960.48
2017-02-20T10:48:08.214Z,960.54
2017-02-20T10:49:07.819Z,960.56
2017-02-20T10:50:07.384Z,960.56
2017-02-20T10:51:07.898Z,960.53
2017-02-20T10:52:07.468Z,960.52
2017-02-20T10:53:08.384Z,960.51
2017-02-20T10:54:07.984Z,960.45
2017-02-20T10:55:07.614Z,960.39
2017-02-20T10:56:08.207Z,960.41
2017-02-20T10:57:07.784Z,960.34
2017-02-20T10:58:07.377Z,960.33
2017-02-20T10:59:08.007Z,960.35
2017-02-20T11:00:07.627Z,960.34
2017-02-20T11:01:08.225Z,960.31
2017-02-20T11:02:07.706Z,960.39
2017-02-20T11:03:08.294Z,960.29
2017-02-20T11:04:07.917Z,960.32
2017-02-20T11:05:07.725Z,960.31
2017-02-20T11:06:07.261Z,960.33
2017-02-20T11:07:07.891Z,960.37
2017-02-20T11:08:07.514Z,960.36
2017-02-20T11:09:08.110Z,960.32
2017-02-20T11:10:07.721Z,960.29
2017-02-20T11:11:07.422Z,960.25
2017-02-20T11:12:08.205Z,960.31
2017-02-20T11:13:07.727Z,960.20
2017-02-20T11:14:08.371Z,960.28
2017-02-20T11:15:07.978Z,960.20
2017-02-20T11:16:07.818Z,960.22
2017-02-20T11:17:07.508Z,960.27
2017-02-20T11:18:08.126Z,960.22
2017-02-20T11:19:07.691Z,960.16
2017-02-20T11:20:08.242Z,960.21
2017-02-20T11:21:07.765Z,960.11
2017-02-20T11:22:07.355Z,960.15
2017-02-20T11:23:07.939Z,960.11
2017-02-20T11:24:07.455Z,960.11
2017-02-20T11:25:08.219Z,960.05
2017-02-20T11:26:07.780Z,960.07
2017-02-20T11:27:07.692Z,960.01
2017-02-20T11:28:08.256Z,960.02
2017-02-20T11:29:07.783Z,960.00
2017-02-20T11:30:07.345Z,959.97
2017-02-20T11:31:07.864Z,959.97
2017-02-20T11:32:07.415Z,959.96
2017-02-20T11:33:07.948Z,959.92
2017-02-20T11:34:07.595Z,959.81
2017-02-20T11:35:08.273Z,959.82
2017-02-20T11:36:07.928Z,959.74
2017-02-20T11:37:07.437Z,959.74
2017-02-20T11:38:08.021Z,959.69
2017-02-20T11:39:07.494Z,959.62
2017-02-20T11:40:07.583Z,959.73
2017-02-20T11:41:08.135Z,959.74
2017-02-20T11:42:07.688Z,959.76
2017-02-20T11:43:08.302Z,959.72
2017-02-20T11:44:07.928Z,959.74
2017-02-20T11:45:07.406Z,959.68
2017-02-20T11:46:08.184Z,959.67
2017-02-20T11:47:07.427Z,959.66
2017-02-20T11:48:08.046Z,959.67
2017-02-20T11:49:07.637Z,959.61
2017-02-20T11:50:08.246Z,959.62
2017-02-20T11:51:07.764Z,959.61
2017-02-20T11:52:07.353Z,959.58
2017-02-20T11:53:07.915Z,959.56
2017-02-20T11:54:07.469Z,959.49
2017-02-20T11:55:08.045Z,959.57
2017-02-20T11:56:07.512Z,959.56
2017-02-20T11:57:08.059Z,959.48
2017-02-20T11:58:07.700Z,959.48
2017-02-20T11:59:08.304Z,959.40
2017-02-20T12:00:07.940Z,959.39
2017-02-20T12:01:07.498Z,959.33
2017-02-20T12:02:08.106Z,959.34
2017-02-20T12:03:07.822Z,959.32
2017-02-20T12:04:07.437Z,959.28
2017-02-20T12:05:08.046Z,959.32
2017-02-20T12:06:07.634Z,959.29
2017-02-20T12:07:08.126Z,959.41
2017-02-20T12:08:07.688Z,959.34
2017-02-20T12:09:08.488Z,959.30
2017-02-20T12:10:07.999Z,959.40
2017-02-20T12:11:07.816Z,959.35
2017-02-20T12:12:07.382Z,959.40
2017-02-20T12:13:07.932Z,959.33
2017-02-20T12:14:07.514Z,959.40
2017-02-20T12:15:08.047Z,959.37
2017-02-20T12:16:07.667Z,959.43
2017-02-20T12:17:08.394Z,959.41
2017-02-20T12:18:07.963Z,959.35
2017-02-20T12:19:07.573Z,959.37
2017-02-20T12:20:08.197Z,959.32
2017-02-20T12:21:07.969Z,959.28
2017-02-20T12:22:07.594Z,959.26
2017-02-20T12:23:08.231Z,959.29
2017-02-20T12:24:07.813Z,959.22
2017-02-20T12:25:07.351Z,959.22
2017-02-20T12:26:07.970Z,959.31
2017-02-20T12:27:07.484Z,959.26
2017-02-20T12:28:08.084Z,959.26